createdAt,value
2018-12-04T00:00:50.340Z,97627.09
2018-12-04T00:03:53.664Z,97629.70
2018-12-04T00:06:56.892Z,97630.37
2018-12-04T00:10:00.141Z,97641.75
2018-12-04T00:13:03.368Z,97644.23
2018-12-04T00:16:06.609Z,97645.09
2018-12-04T00:19:09.860Z,97649.16
2018-12-04T00:22:13.138Z,97650.41
2018-12-04T00:25:16.465Z,97654.86
2018-12-04T00:28:19.701Z,97657.45
2018-12-04T00:31:22.942Z,97651.00
2018-12-04T00:34:26.247Z,97650.33
2018-12-04T00:37:29.497Z,97646.87
2018-12-04T00:40:32.725Z,97644.86
2018-12-04T00:43:35.986Z,97639.92
2018-12-04T00:46:39.354Z,97635.97
2018-12-04T00:49:42.765Z,97647.05
2018-12-04T00:52:45.977Z,97660.15
2018-12-04T00:55:49.315Z,97661.98
2018-12-04T00:58:52.658Z,97659.09
2018-12-04T01:01:55.884Z,97660.64
2018-12-04T01:04:59.146Z,97674.39
2018-12-04T01:08:02.416Z,97678.84
2018-12-04T01:11:05.725Z,97688.40
2018-12-04T01:14:08.956Z,97696.20
2018-12-04T01:17:12.191Z,97702.23
2018-12-04T01:20:15.458Z,97707.61
2018-12-04T01:23:18.770Z,97708.43
2018-12-04T01:26:21.993Z,97716.39
2018-12-04T01:29:25.262Z,97719.14
2018-12-04T01:32:28.477Z,97723.03
2018-12-04T01:35:31.752Z,97719.47
2018-12-04T01:38:34.973Z,97713.35
2018-12-04T01:41:38.248Z,97716.98
2018-12-04T01:44:41.467Z,97724.05
2018-12-04T01:47:44.713Z,97723.56
2018-12-04T01:50:47.943Z,97721.89
2018-12-04T01:53:51.321Z,97719.52
2018-12-04T01:56:54.657Z,97730.98
2018-12-04T01:59:57.929Z,97730.98
2018-12-04T02:03:01.168Z,97739.03
2018-12-04T02:06:04.474Z,97739.81
2018-12-04T02:09:07.871Z,97739.85
2018-12-04T02:12:11.216Z,97737.87
2018-12-04T02:15:14.495Z,97743.16
2018-12-04T02:18:17.812Z,97736.04
2018-12-04T02:21:21.065Z,97735.03
2018-12-04T02:24:24.291Z,97744.64
2018-12-04T02:27:27.530Z,97745.94
2018-12-04T02:30:30.797Z,97752.25
2018-12-04T02:33:34.034Z,97745.73
2018-12-04T02:36:37.271Z,97746.65
2018-12-04T02:39:40.604Z,97748.20
2018-12-04T02:42:43.923Z,97756.11
2018-12-04T02:45:47.192Z,97750.81
2018-12-04T02:48:50.428Z,97756.00
2018-12-04T02:51:53.662Z,97755.39
2018-12-04T02:54:56.907Z,97763.22
2018-12-04T02:58:00.231Z,97774.04
2018-12-04T03:01:03.467Z,97767.84
2018-12-04T03:04:06.731Z,97767.30
2018-12-04T03:07:10.089Z,97777.23
2018-12-04T03:10:13.409Z,97779.80
2018-12-04T03:13:16.686Z,97782.78
2018-12-04T03:16:19.921Z,97768.95
2018-12-04T03:19:23.237Z,97780.25
2018-12-04T03:22:26.508Z,97785.49
2018-12-04T03:25:29.750Z,97786.77
2018-12-04T03:28:32.979Z,97788.47
2018-12-04T03:31:36.211Z,97797.11
2018-12-04T03:34:39.571Z,97795.52
2018-12-04T03:37:42.804Z,97803.43
2018-12-04T03:40:46.097Z,97811.78
2018-12-04T03:43:49.340Z,97811.19
2018-12-04T03:46:52.589Z,97824.19
2018-12-04T03:49:55.896Z,97830.83
2018-12-04T03:52:59.201Z,97833.06
2018-12-04T03:56:02.500Z,97841.63
2018-12-04T03:59:05.801Z,97838.83
2018-12-04T04:02:09.152Z,97850.09
2018-12-04T04:05:12.385Z,97853.84
2018-12-04T04:08:15.621Z,97856.31
2018-12-04T04:11:18.944Z,97864.92
2018-12-04T04:14:22.181Z,97875.83
2018-12-04T04:17:25.421Z,97867.74
2018-12-04T04:20:28.774Z,97878.89
2018-12-04T04:23:32.063Z,97884.75
2018-12-04T04:26:35.325Z,97890.20
2018-12-04T04:29:38.553Z,97897.73
2018-12-04T04:32:41.794Z,97899.59
2018-12-04T04:35:45.020Z,97916.49
2018-12-04T04:38:48.253Z,97907.14
2018-12-04T04:41:51.500Z,97913.08
2018-12-04T04:44:54.765Z,97911.73
2018-12-04T04:47:58.100Z,97918.45
2018-12-04T04:51:01.369Z,97930.80
2018-12-04T04:54:04.661Z,97933.14
2018-12-04T04:57:07.901Z,97934.46
2018-12-04T05:00:11.166Z,97938.58
2018-12-04T05:03:14.485Z,97930.80
2018-12-04T05:06:17.722Z,97933.70
2018-12-04T05:09:21.054Z,97945.79
2018-12-04T05:12:24.293Z,97946.15
2018-12-04T05:15:27.572Z,97949.41
2018-12-04T05:18:30.894Z,97970.86
2018-12-04T05:21:34.122Z,97973.55
2018-12-04T05:24:37.366Z,97977.58
2018-12-04T05:27:40.607Z,97991.50
2018-12-04T05:30:43.841Z,97994.56
2018-12-04T05:33:47.084Z,98002.58
2018-12-04T05:36:50.402Z,97999.70
2018-12-04T05:39:53.726Z,98010.74
2018-12-04T05:42:56.969Z,98009.61
2018-12-04T05:46:00.196Z,98015.82
2018-12-04T05:49:03.430Z,98023.08
2018-12-04T05:52:06.674Z,98031.69
2018-12-04T05:55:09.902Z,98031.16
2018-12-04T05:58:13.173Z,98031.97
2018-12-04T06:01:16.475Z,98046.95
2018-12-04T06:04:19.776Z,98046.70
2018-12-04T06:07:23.006Z,98047.48
2018-12-04T06:10:26.264Z,98054.74
2018-12-04T06:13:29.565Z,98057.95
2018-12-04T06:16:32.794Z,98060.91
2018-12-04T06:19:36.033Z,98063.34
2018-12-04T06:22:39.272Z,98068.39
2018-12-04T06:25:42.586Z,98066.80
2018-12-04T06:28:45.820Z,98077.03
2018-12-04T06:31:49.117Z,98083.16
2018-12-04T06:34:52.426Z,98083.97
2018-12-04T06:37:55.735Z,98087.45
2018-12-04T06:40:59.004Z,98099.22
2018-12-04T06:44:02.230Z,98110.48
2018-12-04T06:47:05.505Z,98108.08
2018-12-04T06:50:10.704Z,98120.67
2018-12-04T06:53:14.028Z,98124.44
2018-12-04T06:56:17.337Z,98135.13
2018-12-04T06:59:20.569Z,98137.02
2018-12-04T07:02:23.836Z,98146.39
2018-12-04T07:05:27.088Z,98152.30
2018-12-04T07:08:30.399Z,98163.00
2018-12-04T07:11:33.624Z,98168.35
2018-12-04T07:14:36.899Z,98174.52
2018-12-04T07:17:40.174Z,98189.50
2018-12-04T07:20:43.404Z,98189.52
2018-12-04T07:23:46.643Z,98186.84
2018-12-04T07:30:03.547Z,98209.59
2018-12-04T07:33:06.925Z,98220.58
2018-12-04T07:36:10.144Z,98235.31
2018-12-04T07:39:13.423Z,98245.72
2018-12-04T07:42:16.761Z,98251.09
2018-12-04T07:45:20.105Z,98256.72
2018-12-04T07:48:23.349Z,98262.34
2018-12-04T07:51:26.585Z,98261.80
2018-12-04T07:54:29.892Z,98265.02
2018-12-04T07:57:33.132Z,98272.77
2018-12-04T08:00:36.508Z,98271.44
2018-12-04T08:03:39.722Z,98284.29
2018-12-04T08:06:43.081Z,98275.48
2018-12-04T08:09:46.372Z,98280.03
2018-12-04T08:12:49.621Z,98283.77
2018-12-04T08:15:52.930Z,98292.62
2018-12-04T08:18:56.289Z,98298.25
2018-12-04T08:21:59.599Z,98299.34
2018-12-04T08:25:02.960Z,98299.59
2018-12-04T08:28:06.284Z,98317.57
2018-12-04T08:31:09.525Z,98314.65
2018-12-04T08:34:12.902Z,98325.38
2018-12-04T08:37:16.186Z,98334.50
2018-12-04T08:40:19.549Z,98331.83
2018-12-04T08:43:22.780Z,98352.19
2018-12-04T08:46:26.120Z,98356.77
2018-12-04T08:49:29.387Z,98362.13
2018-12-04T08:52:32.693Z,98362.94
2018-12-04T08:55:35.935Z,98376.59
2018-12-04T08:58:39.244Z,98382.21
2018-12-04T09:01:42.537Z,98383.56
2018-12-04T09:04:45.823Z,98390.78
2018-12-04T09:07:49.132Z,98403.36
2018-12-04T09:10:52.443Z,98416.52
2018-12-04T09:13:55.656Z,98422.95
2018-12-04T09:16:59.039Z,98428.83
2018-12-04T09:20:02.334Z,98445.70
2018-12-04T09:23:05.588Z,98445.70
2018-12-04T09:26:08.884Z,98444.89
2018-12-04T09:29:12.275Z,98448.13
2018-12-04T09:32:15.638Z,98455.10
2018-12-04T09:35:18.905Z,98463.14
2018-12-04T09:38:22.128Z,98458.56
2018-12-04T09:41:25.414Z,98456.72
2018-12-04T09:44:28.640Z,98476.59
2018-12-04T09:47:31.902Z,98472.55
2018-12-04T09:50:35.148Z,98476.91
2018-12-04T09:53:38.479Z,98472.61
2018-12-04T09:56:41.689Z,98484.70
2018-12-04T09:59:44.913Z,98480.66
2018-12-04T10:02:48.144Z,98497.29
2018-12-04T10:05:51.413Z,98492.74
2018-12-04T10:08:54.649Z,98498.89
2018-12-04T10:11:57.989Z,98496.23
2018-12-04T10:15:01.222Z,98501.57
2018-12-04T10:18:04.589Z,98502.66
2018-12-04T10:21:07.866Z,98511.22
2018-12-04T10:24:11.112Z,98503.44
2018-12-04T10:27:14.340Z,98507.44
2018-12-04T10:30:17.660Z,98508.02
2018-12-04T10:33:20.882Z,98504.78
2018-12-04T10:36:24.105Z,98510.41
2018-12-04T10:39:27.338Z,98518.67
2018-12-04T10:42:30.571Z,98521.32
2018-12-04T10:45:33.936Z,98524.56
2018-12-04T10:48:37.180Z,98524.31
2018-12-04T10:51:40.530Z,98529.86
2018-12-04T10:54:43.744Z,98538.62
2018-12-04T10:57:47.005Z,98542.09
2018-12-04T11:00:55.031Z,98548.95
2018-12-04T11:03:58.427Z,98544.45
2018-12-04T11:07:01.632Z,98555.42
2018-12-04T11:10:05.431Z,98558.86
2018-12-04T11:13:08.632Z,98558.88
2018-12-04T11:16:11.927Z,98554.55
2018-12-04T11:19:15.269Z,98550.86
2018-12-04T11:22:18.517Z,98550.09
2018-12-04T11:25:21.750Z,98559.66
2018-12-04T11:28:25.057Z,98570.41
2018-12-04T11:31:28.281Z,98582.72
2018-12-04T11:34:31.587Z,98582.19
2018-12-04T11:37:34.808Z,98580.85
2018-12-04T11:40:38.040Z,98586.73
2018-12-04T11:43:41.261Z,98584.92
2018-12-04T11:46:44.518Z,98591.50
2018-12-04T11:49:47.885Z,98590.20
2018-12-04T11:52:51.125Z,98592.80
2018-12-04T11:55:54.482Z,98609.16
2018-12-04T11:58:57.919Z,98613.59
2018-12-04T12:02:01.586Z,98614.58
2018-12-04T12:05:05.224Z,98614.50
2018-12-04T12:08:08.492Z,98609.62
2018-12-04T12:11:11.721Z,98624.31
2018-12-04T12:14:14.978Z,98634.73
2018-12-04T12:17:18.180Z,98635.61
2018-12-04T12:20:21.472Z,98629.84
2018-12-04T12:23:24.673Z,98631.73
2018-12-04T12:26:27.901Z,98637.00
2018-12-04T12:29:31.113Z,98638.05
2018-12-04T12:32:34.337Z,98652.21
2018-12-04T12:35:37.572Z,98648.52
2018-12-04T12:38:40.789Z,98650.71
2018-12-04T12:41:44.042Z,98650.35
2018-12-04T12:44:47.343Z,98660.24
2018-12-04T12:47:50.564Z,98655.67
2018-12-04T12:50:53.788Z,98658.64
2018-12-04T12:53:57.024Z,98656.84
2018-12-04T12:57:00.230Z,98651.23
2018-12-04T13:00:04.933Z,98649.83
2018-12-04T13:03:08.156Z,98663.28
2018-12-04T13:06:11.471Z,98673.14
2018-12-04T13:09:14.778Z,98673.14
2018-12-04T13:12:18.113Z,98683.39
2018-12-04T13:15:21.434Z,98683.69
2018-12-04T13:18:24.855Z,98686.10
2018-12-04T13:21:28.167Z,98683.20
2018-12-04T13:24:31.462Z,98691.42
2018-12-04T13:27:34.706Z,98696.55
2018-12-04T13:30:38.020Z,98701.24
2018-12-04T13:33:41.352Z,98710.09
2018-12-04T13:36:44.583Z,98711.77
2018-12-04T13:39:47.905Z,98721.02
2018-12-04T13:42:51.201Z,98726.55
2018-12-04T13:45:54.496Z,98734.33
2018-12-04T13:48:57.794Z,98742.45
2018-12-04T13:52:01.023Z,98753.80
2018-12-04T13:55:04.793Z,98746.67
2018-12-04T13:58:08.123Z,98747.51
2018-12-04T14:01:11.526Z,98750.05
2018-12-04T14:04:17.138Z,98756.95
2018-12-04T14:07:20.064Z,98762.27
2018-12-04T14:10:23.361Z,98766.15
2018-12-04T14:13:26.590Z,98765.72
2018-12-04T14:16:29.938Z,98771.80
2018-12-04T14:19:34.166Z,98771.06
2018-12-04T14:22:37.584Z,98779.66
2018-12-04T14:25:40.974Z,98770.94
2018-12-04T14:28:44.290Z,98772.45
2018-12-04T14:31:47.568Z,98776.80
2018-12-04T14:34:50.810Z,98781.95
2018-12-04T14:37:54.161Z,98788.42
2018-12-04T14:40:57.543Z,98796.53
2018-12-04T14:44:00.828Z,98798.95
2018-12-04T14:47:04.177Z,98802.34
2018-12-04T14:50:08.518Z,98812.94
2018-12-04T14:53:11.771Z,98818.89
2018-12-04T14:56:15.109Z,98830.59
2018-12-04T14:59:18.428Z,98828.94
2018-12-04T15:02:21.809Z,98835.37
2018-12-04T15:05:25.137Z,98833.95
2018-12-04T15:08:28.441Z,98841.63
2018-12-04T15:11:31.698Z,98845.37
2018-12-04T15:14:34.992Z,98848.11
2018-12-04T15:17:38.237Z,98852.88
2018-12-04T15:20:41.550Z,98851.32
2018-12-04T15:23:44.831Z,98866.63
2018-12-04T15:26:48.053Z,98869.77
2018-12-04T15:29:51.312Z,98883.42
2018-12-04T15:32:54.643Z,98884.64
2018-12-04T15:35:57.936Z,98892.47
2018-12-04T15:39:01.277Z,98896.48
2018-12-04T15:42:04.711Z,98905.33
2018-12-04T15:45:08.205Z,98901.70
2018-12-04T15:48:11.541Z,98911.34
2018-12-04T15:51:14.915Z,98915.08
2018-12-04T15:54:18.192Z,98920.36
2018-12-04T15:57:21.622Z,98909.87
2018-12-04T16:00:24.917Z,98926.84
2018-12-04T16:03:28.148Z,98925.56
2018-12-04T16:06:31.361Z,98932.05
2018-12-04T16:09:34.638Z,98942.69
2018-12-04T16:12:37.878Z,98946.91
2018-12-04T16:15:41.301Z,98942.05
2018-12-04T16:18:44.537Z,98950.19
2018-12-04T16:21:47.788Z,98951.91
2018-12-04T16:24:51.010Z,98958.77
2018-12-04T16:27:54.534Z,98962.89
2018-12-04T16:30:57.913Z,98963.26
2018-12-04T16:34:01.142Z,98975.21
2018-12-04T16:37:04.452Z,98967.47
2018-12-04T16:40:07.848Z,98975.91
2018-12-04T16:43:11.085Z,98970.84
2018-12-04T16:46:14.314Z,98971.93
2018-12-04T16:49:17.596Z,98981.91
2018-12-04T16:52:20.847Z,98990.25
2018-12-04T16:55:24.134Z,98980.52
2018-12-04T16:58:27.367Z,98978.73
2018-12-04T17:01:30.596Z,98974.12
2018-12-04T17:04:33.942Z,98982.28
2018-12-04T17:07:37.284Z,98994.45
2018-12-04T17:10:40.504Z,98999.34
2018-12-04T17:13:43.759Z,99010.75
2018-12-04T17:16:47.026Z,99006.56
2018-12-04T17:19:50.228Z,99015.89
2018-12-04T17:22:53.485Z,99025.75
2018-12-04T17:25:56.704Z,99022.27
2018-12-04T17:28:59.925Z,99030.72
2018-12-04T17:32:03.280Z,99035.30
2018-12-04T17:35:06.518Z,99039.59
2018-12-04T17:38:09.745Z,99040.50
2018-12-04T17:41:12.995Z,99042.17
2018-12-04T17:44:16.199Z,99046.03
2018-12-04T17:47:19.486Z,99059.55
2018-12-04T17:50:22.721Z,99061.83
2018-12-04T17:53:26.117Z,99058.45
2018-12-04T17:56:29.346Z,99061.10
2018-12-04T17:59:32.649Z,99066.55
2018-12-04T18:02:35.884Z,99063.82
2018-12-04T18:05:39.162Z,99058.03
2018-12-04T18:08:42.463Z,99057.11
2018-12-04T18:11:45.666Z,99057.14
2018-12-04T18:14:48.921Z,99056.86
2018-12-04T18:17:52.545Z,99061.03
2018-12-04T18:20:56.325Z,99055.23
2018-12-04T18:24:00.052Z,99054.02
2018-12-04T18:27:03.288Z,99062.27
2018-12-04T18:30:07.760Z,99063.95
2018-12-04T18:33:11.002Z,99068.50
2018-12-04T18:36:14.245Z,99076.56
2018-12-04T18:39:17.473Z,99069.73
2018-12-04T18:42:20.841Z,99072.23
2018-12-04T18:45:24.161Z,99076.00
2018-12-04T18:48:27.773Z,99084.25
2018-12-04T18:51:31.219Z,99094.34
2018-12-04T18:54:34.977Z,99108.03
2018-12-04T18:57:38.249Z,99107.84
2018-12-04T19:00:42.200Z,99109.91
2018-12-04T19:03:45.525Z,99113.92
2018-12-04T19:06:48.816Z,99110.49
2018-12-04T19:09:52.161Z,99096.31
2018-12-04T19:12:55.600Z,99088.11
2018-12-04T19:15:59.296Z,99089.70
2018-12-04T19:19:03.381Z,99089.81
2018-12-04T19:22:06.802Z,99095.66
2018-12-04T19:25:10.642Z,99096.47
2018-12-04T19:28:14.452Z,99094.31
2018-12-04T19:31:17.678Z,99087.25
2018-12-04T19:34:20.925Z,99095.76
2018-12-04T19:37:25.224Z,99094.63
2018-12-04T19:40:28.739Z,99091.52
2018-12-04T19:43:32.317Z,99093.59
2018-12-04T19:46:35.655Z,99086.85
2018-12-04T19:49:38.965Z,99094.13
2018-12-04T19:52:42.285Z,99103.97
2018-12-04T19:55:45.807Z,99113.53
2018-12-04T19:58:49.377Z,99120.49
2018-12-04T20:01:52.783Z,99118.05
2018-12-04T20:04:58.757Z,99113.95
2018-12-04T20:08:10.409Z,99110.27
2018-12-04T20:11:20.446Z,99111.92
2018-12-04T20:14:32.257Z,99110.49
2018-12-04T20:17:42.329Z,99115.08
2018-12-04T20:20:45.589Z,99113.58
2018-12-04T20:23:48.947Z,99118.17
2018-12-04T20:26:52.480Z,99112.11
2018-12-04T20:29:55.773Z,99120.03
2018-12-04T20:32:59.991Z,99123.30
2018-12-04T20:36:04.188Z,99119.27
2018-12-04T20:39:07.779Z,99113.45
2018-12-04T20:42:11.603Z,99124.27
2018-12-04T20:45:15.575Z,99137.92
2018-12-04T20:48:20.084Z,99136.83
2018-12-04T20:51:23.359Z,99153.69
2018-12-04T20:54:26.739Z,99158.48
2018-12-04T20:57:30.257Z,99155.05
2018-12-04T21:00:33.619Z,99171.21
2018-12-04T21:03:37.358Z,99174.77
2018-12-04T21:06:40.621Z,99174.78
2018-12-04T21:09:43.972Z,99169.57
2018-12-04T21:12:47.530Z,99175.86
2018-12-04T21:15:51.050Z,99174.34
2018-12-04T21:18:54.261Z,99172.03
2018-12-04T21:21:58.023Z,99171.50
2018-12-04T21:25:01.592Z,99167.05
2018-12-04T21:28:10.613Z,99170.41
2018-12-04T21:31:19.670Z,99161.86
2018-12-04T21:34:28.601Z,99160.95
2018-12-04T21:37:37.420Z,99163.70
2018-12-04T21:40:46.136Z,99160.02
2018-12-04T21:43:54.789Z,99165.73
2018-12-04T21:47:03.445Z,99174.72
2018-12-04T21:50:07.127Z,99180.88
2018-12-04T21:53:10.370Z,99180.70
2018-12-04T21:56:13.693Z,99181.80
2018-12-04T21:59:16.913Z,99195.47
2018-12-04T22:02:20.133Z,99193.70
2018-12-04T22:05:23.383Z,99193.19
2018-12-04T22:08:26.688Z,99187.86
2018-12-04T22:11:29.932Z,99187.97
2018-12-04T22:14:33.153Z,99193.20
2018-12-04T22:17:36.553Z,99192.05
2018-12-04T22:20:39.978Z,99199.37
2018-12-04T22:23:43.204Z,99191.27
2018-12-04T22:26:46.563Z,99187.33
2018-12-04T22:29:50.160Z,99187.75
2018-12-04T22:32:53.411Z,99193.03
2018-12-04T22:35:56.696Z,99199.00
2018-12-04T22:38:59.953Z,99194.75
2018-12-04T22:42:03.185Z,99187.54
2018-12-04T22:48:36.122Z,99193.09
2018-12-04T22:51:39.373Z,99189.57
2018-12-04T22:54:42.669Z,99201.73
2018-12-04T22:57:45.915Z,99205.38
2018-12-04T23:00:50.005Z,99213.05
2018-12-04T23:03:53.240Z,99216.23
2018-12-04T23:06:56.563Z,99199.97
2018-12-04T23:09:59.809Z,99208.91
2018-12-04T23:13:03.086Z,99212.39
2018-12-04T23:16:06.340Z,99218.59
2018-12-04T23:19:09.650Z,99210.78
2018-12-04T23:22:12.952Z,99205.76
2018-12-04T23:25:16.256Z,99204.09
2018-12-04T23:28:19.519Z,99194.72
2018-12-04T23:31:22.767Z,99195.70
2018-12-04T23:34:25.988Z,99198.27
2018-12-04T23:37:29.237Z,99186.51
2018-12-04T23:40:32.494Z,99183.70
2018-12-04T23:43:35.775Z,99184.53
2018-12-04T23:46:39.007Z,99181.27
2018-12-04T23:49:42.318Z,99172.35
2018-12-04T23:52:45.560Z,99169.39
2018-12-04T23:55:48.933Z,99169.14
2018-12-04T23:58:52.184Z,99173.48
